Time;durP1;ratioP1;P1;durP2;ratioP2;P2;SDS_P1;SDS_P2;PMS_P1;PMS_P2;Temp;Humidity;BMP_temperature;BMP_pressure;BME280_temperature;BME280_humidity;BME280_pressure;Samples;Min_cycle;Max_cycle;Signal;HPM_P1;HPM_P2
2022/03/17 00:00:35;;;;;;;79.10;47.40;;;;;;;4.76;52.04;101701.96;107793;1270;108786;-76
2022/03/17 00:03:13;;;;;;;77.60;47.20;;;;;;;4.72;52.01;101703.64;107768;1271;109315;-76
2022/03/17 00:05:45;;;;;;;78.00;48.30;;;;;;;4.68;52.34;101706.15;107638;1270;139256;-76
2022/03/17 00:08:17;;;;;;;75.30;47.60;;;;;;;4.64;52.55;101710.38;107765;1271;94595;-76
2022/03/17 00:10:50;;;;;;;74.60;46.70;;;;;;;4.60;52.80;101713.41;107564;1271;138154;-75
2022/03/17 00:13:22;;;;;;;79.80;48.40;;;;;;;4.55;53.01;101715.94;107771;1271;108851;-75
2022/03/17 00:15:54;;;;;;;80.10;49.70;;;;;;;4.51;52.98;101714.67;107760;1271;107770;-75
2022/03/17 00:18:26;;;;;;;76.20;47.90;;;;;;;4.46;53.36;101720.09;107666;1271;138127;-75
2022/03/17 00:21:02;;;;;;;80.90;49.30;;;;;;;4.42;53.65;101721.56;107782;1270;94843;-75
2022/03/17 00:23:34;;;;;;;76.80;48.80;;;;;;;4.37;54.07;101728.39;107577;1271;138951;-74
2022/03/17 00:26:06;;;;;;;80.20;49.10;;;;;;;4.32;53.98;101727.28;107790;1270;108882;-75
2022/03/17 00:28:39;;;;;;;76.70;47.20;;;;;;;4.29;53.94;101734.25;107653;1271;138235;-75
2022/03/17 00:31:11;;;;;;;81.10;48.60;;;;;;;4.25;54.09;101728.16;107768;1271;94625;-76
2022/03/17 00:33:44;;;;;;;80.50;48.40;;;;;;;4.23;54.01;101728.84;107810;1271;94529;-75
2022/03/17 00:36:16;;;;;;;75.80;47.30;;;;;;;4.20;53.99;101728.61;107719;1269;137764;-76
2022/03/17 00:38:48;;;;;;;78.30;48.50;;;;;;;4.17;54.28;101725.64;107824;1270;107727;-75
2022/03/17 00:41:21;;;;;;;76.50;48.70;;;;;;;4.14;54.60;101728.00;107679;1270;137697;-76
2022/03/17 00:43:53;;;;;;;80.80;48.70;;;;;;;4.11;54.47;101728.25;107769;1271;94776;-77
2022/03/17 00:46:25;;;;;;;75.80;48.00;;;;;;;4.08;54.52;101726.49;107693;1271;138462;-76
2022/03/17 00:48:57;;;;;;;78.70;48.70;;;;;;;4.07;54.41;101724.06;107812;1271;111017;-75
2022/03/17 00:51:30;;;;;;;80.70;48.80;;;;;;;4.06;54.58;101728.35;107800;1270;108774;-76
2022/03/17 00:54:03;;;;;;;80.00;49.50;;;;;;;4.02;55.04;101728.63;107575;1271;137706;-76
2022/03/17 00:56:35;;;;;;;75.00;48.20;;;;;;;3.97;55.06;101728.89;107777;1271;94898;-76
2022/03/17 00:59:07;;;;;;;76.80;48.60;;;;;;;3.91;55.58;101725.33;107680;1270;138193;-76
2022/03/17 01:01:39;;;;;;;80.40;49.00;;;;;;;3.86;55.39;101722.99;107807;1270;110439;-75
2022/03/17 01:04:11;;;;;;;82.40;47.90;;;;;;;3.82;56.00;101725.52;107692;1270;138187;-75
2022/03/17 01:06:43;;;;;;;80.50;48.00;;;;;;;3.78;55.68;101730.07;107797;1270;109331;-76
2022/03/17 01:09:15;;;;;;;77.50;47.00;;;;;;;3.74;55.95;101728.78;107800;1271;94810;-76
2022/03/17 01:11:47;;;;;;;78.10;48.90;;;;;;;3.72;56.08;101731.14;107710;1269;138133;-75
2022/03/17 01:14:19;;;;;;;76.80;47.40;;;;;;;3.69;56.25;101735.56;107745;1270;110060;-76
2022/03/17 01:16:52;;;;;;;77.70;46.60;;;;;;;3.67;55.99;101729.52;107667;1271;139144;-75
2022/03/17 01:19:26;;;;;;;76.20;47.00;;;;;;;3.67;56.13;101731.92;107765;1269;107354;-75
2022/03/17 01:21:58;;;;;;;74.60;45.90;;;;;;;3.65;56.14;101732.73;107734;1270;95960;-76
2022/03/17 01:24:30;;;;;;;77.60;47.60;;;;;;;3.66;56.41;101738.60;107644;1271;138699;-75
2022/03/17 01:27:02;;;;;;;80.60;46.90;;;;;;;3.64;56.33;101734.28;107794;1270;110147;-74
2022/03/17 01:29:34;;;;;;;75.70;48.10;;;;;;;3.63;56.31;101733.58;107602;1270;137639;-75
2022/03/17 01:32:08;;;;;;;77.40;45.80;;;;;;;3.64;56.35;101735.64;107762;1270;109136;-74
2022/03/17 01:34:40;;;;;;;72.90;46.50;;;;;;;3.64;56.66;101734.27;107658;1270;138159;-75
2022/03/17 01:37:13;;;;;;;78.80;47.60;;;;;;;3.62;56.60;101733.56;107777;1270;94722;-74
2022/03/17 01:39:45;;;;;;;74.90;47.80;;;;;;;3.60;56.74;101735.93;107803;1269;111431;-75
2022/03/17 01:42:17;;;;;;;80.50;48.50;;;;;;;3.59;56.87;101739.31;107553;1271;138654;-75
2022/03/17 01:44:49;;;;;;;75.60;46.90;;;;;;;3.54;56.77;101743.18;107762;1270;107851;-74
2022/03/17 01:47:31;;;;;;;76.90;47.60;;;;;;;3.52;56.69;101745.36;107631;1270;140441;-75
2022/03/17 01:50:07;;;;;;;80.20;48.00;;;;;;;3.50;57.01;101752.23;107816;1270;94780;-74
2022/03/17 01:52:40;;;;;;;78.50;47.60;;;;;;;3.47;56.66;101751.13;107671;1271;138664;-75
2022/03/17 01:55:14;;;;;;;83.30;49.30;;;;;;;3.46;56.77;101750.76;107770;1269;108838;-74
2022/03/17 01:57:46;;;;;;;75.00;48.00;;;;;;;3.45;56.89;101750.22;107774;1270;107552;-75
2022/03/17 02:00:21;;;;;;;71.50;45.90;;;;;;;3.41;57.07;101749.63;107638;1270;138595;-75
2022/03/17 02:02:54;;;;;;;75.50;47.10;;;;;;;3.39;57.27;101748.35;107785;1270;94698;-75
2022/03/17 02:05:26;;;;;;;77.00;46.80;;;;;;;3.36;57.28;101752.60;107675;1271;140345;-75
2022/03/17 02:07:59;;;;;;;75.70;46.40;;;;;;;3.34;57.46;101753.08;107814;1270;106764;-75
2022/03/17 02:13:08;;;;;;;71.90;46.50;;;;;;;3.31;57.53;101753.35;107639;1271;138592;-75
2022/03/17 02:13:23;;;;;;;77.00;47.80;;;;;;;3.29;57.62;101762.09;107663;1270;94819;-75
2022/03/17 02:15:57;;;;;;;75.50;46.10;;;;;;;3.27;57.54;101759.30;107785;1270;94380;-76
2022/03/17 02:18:29;;;;;;;73.90;47.50;;;;;;;3.27;57.63;101762.73;107672;1270;138396;-75
2022/03/17 02:21:02;;;;;;;74.50;45.50;;;;;;;3.25;57.79;101765.09;107763;1270;107859;-75
2022/03/17 02:26:24;;;;;;;75.50;45.70;;;;;;;3.20;57.96;101771.31;107752;1269;94936;-76
2022/03/17 02:28:56;;;;;;;70.90;44.20;;;;;;;3.17;57.92;101776.42;107715;1269;138479;-75
2022/03/17 02:31:28;;;;;;;72.50;44.70;;;;;;;3.16;58.01;101778.29;107739;1270;109560;-75
2022/03/17 02:34:00;;;;;;;71.50;44.80;;;;;;;3.15;57.92;101779.13;107791;1270;107617;-74
2022/03/17 02:36:33;;;;;;;74.00;45.20;;;;;;;3.16;58.16;101780.69;107703;1270;138283;-74
2022/03/17 02:39:06;;;;;;;74.60;45.00;;;;;;;3.14;58.20;101781.17;107736;1271;94846;-75
2022/03/17 02:41:39;;;;;;;77.80;45.90;;;;;;;3.13;58.02;101784.08;107695;1270;137861;-75
2022/03/17 02:44:12;;;;;;;74.20;44.80;;;;;;;3.09;58.27;101786.55;107825;1269;109935;-75
2022/03/17 02:46:44;;;;;;;72.10;45.20;;;;;;;3.04;58.24;101786.09;107734;1270;138882;-76
2022/03/17 02:49:17;;;;;;;74.00;45.60;;;;;;;2.98;58.25;101786.65;107748;1270;107708;-76
2022/03/17 02:51:51;;;;;;;73.70;46.60;;;;;;;2.94;58.26;101785.35;107806;1270;94996;-76
2022/03/17 02:54:23;;;;;;;76.90;45.90;;;;;;;2.90;58.41;101786.11;107681;1269;137508;-75
2022/03/17 02:56:55;;;;;;;80.20;44.60;;;;;;;2.85;58.45;101784.77;107829;1270;111619;-74
2022/03/17 02:59:27;;;;;;;77.70;44.80;;;;;;;2.79;58.74;101787.56;107656;1270;140141;-74
2022/03/17 03:02:04;;;;;;;77.20;45.30;;;;;;;2.72;58.67;101790.15;107765;1270;108291;-74
2022/03/17 03:04:36;;;;;;;68.90;42.20;;;;;;;2.65;58.96;101791.86;107661;1270;138918;-75
2022/03/17 03:07:08;;;;;;;69.40;41.50;;;;;;;2.61;59.41;101793.48;107805;1269;94882;-75
2022/03/17 03:09:40;;;;;;;68.40;41.80;;;;;;;2.58;59.29;101789.45;107817;1270;109882;-75
2022/03/17 03:12:14;;;;;;;70.60;42.10;;;;;;;2.57;59.57;101794.08;107702;1270;137679;-76
2022/03/17 03:14:46;;;;;;;75.30;43.50;;;;;;;2.57;59.47;101800.42;107794;1269;107954;-76
2022/03/17 03:17:21;;;;;;;72.30;43.90;;;;;;;2.55;59.46;101799.86;107673;1270;137881;-76
2022/03/17 03:19:53;;;;;;;73.10;43.20;;;;;;;2.54;59.65;101800.52;107771;1270;94651;-75
2022/03/17 03:22:29;;;;;;;71.10;44.60;;;;;;;2.50;59.67;101803.14;107656;1270;138825;-75
2022/03/17 03:25:01;;;;;;;68.50;43.70;;;;;;;2.47;59.88;101807.70;107799;1270;108909;-75
2022/03/17 03:27:34;;;;;;;69.70;43.70;;;;;;;2.42;60.06;101807.41;107776;1270;109703;-76
2022/03/17 03:30:07;;;;;;;72.30;45.00;;;;;;;2.37;60.36;101811.77;107568;1270;138471;-75
2022/03/17 03:32:40;;;;;;;70.80;41.50;;;;;;;2.34;60.40;101815.43;107761;1270;94860;-75
2022/03/17 03:38:02;;;;;;;67.40;41.10;;;;;;;2.31;60.62;101822.73;107783;1270;107727;-75
2022/03/17 03:40:34;;;;;;;67.50;41.70;;;;;;;2.31;60.96;101826.68;107685;1270;137979;-76
2022/03/17 03:43:07;;;;;;;72.60;43.00;;;;;;;2.31;60.80;101822.20;107801;1270;94866;-76
2022/03/17 03:45:39;;;;;;;66.70;43.30;;;;;;;2.31;60.97;101826.52;107762;1270;94846;-75
2022/03/17 03:48:11;;;;;;;72.20;43.90;;;;;;;2.30;60.93;101835.41;107689;1270;137721;-75
2022/03/17 03:50:46;;;;;;;68.60;42.90;;;;;;;2.28;61.26;101838.27;107818;1270;108732;-76
2022/03/17 03:53:18;;;;;;;68.90;41.60;;;;;;;2.23;61.39;101843.80;107696;1270;137829;-75
2022/03/17 03:55:50;;;;;;;66.80;41.10;;;;;;;2.17;61.18;101847.24;107767;1270;94890;-75
2022/03/17 03:58:22;;;;;;;64.80;41.30;;;;;;;2.13;61.39;101848.66;107674;1270;139176;-75
2022/03/17 04:00:54;;;;;;;64.10;39.40;;;;;;;2.11;61.26;101847.40;107771;1270;111041;-76
2022/03/17 04:03:28;;;;;;;66.00;39.20;;;;;;;2.09;61.56;101849.95;107805;1270;107675;-75
2022/03/17 04:06:00;;;;;;;70.10;41.50;;;;;;;2.09;61.75;101850.27;107652;1270;139340;-75
2022/03/17 04:08:32;;;;;;;67.70;39.70;;;;;;;2.10;61.53;101859.40;107795;1270;94833;-75
2022/03/17 04:11:04;;;;;;;69.40;40.00;;;;;;;2.10;61.68;101861.96;107687;1270;138651;-76
2022/03/17 04:13:36;;;;;;;73.40;42.60;;;;;;;2.08;61.68;101865.35;107761;1270;110046;-75
2022/03/17 04:16:09;;;;;;;71.30;42.30;;;;;;;2.06;61.74;101869.25;107806;1270;109197;-75
2022/03/17 04:18:41;;;;;;;73.00;43.00;;;;;;;2.04;61.84;101873.13;107696;1270;138623;-75
2022/03/17 04:21:13;;;;;;;71.60;42.10;;;;;;;2.00;61.81;101878.18;107764;1271;94996;-75
2022/03/17 04:23:45;;;;;;;71.30;43.60;;;;;;;1.97;61.72;101882.38;107698;1270;137602;-75
2022/03/17 04:26:21;;;;;;;65.50;41.50;;;;;;;1.93;61.76;101881.89;107812;1270;111009;-75
2022/03/17 04:28:53;;;;;;;70.70;39.90;;;;;;;1.90;62.09;101883.88;107699;1269;138781;-75
2022/03/17 04:31:25;;;;;;;60.90;39.00;;;;;;;1.87;62.30;101881.55;107722;1270;109374;-75
2022/03/17 04:33:58;;;;;;;69.80;40.40;;;;;;;1.85;62.50;101878.94;107802;1270;95536;-76
2022/03/17 04:36:31;;;;;;;70.00;41.40;;;;;;;1.85;62.35;101880.98;107705;1270;137528;-75
2022/03/17 04:39:05;;;;;;;67.50;41.60;;;;;;;1.84;62.30;101882.85;107822;1270;110945;-75
2022/03/17 04:41:40;;;;;;;69.00;42.20;;;;;;;1.83;62.58;101886.92;107682;1270;138082;-75
2022/03/17 04:44:13;;;;;;;66.00;40.60;;;;;;;1.81;62.39;101889.63;107776;1270;108174;-74
2022/03/17 04:46:46;;;;;;;74.70;43.60;;;;;;;1.79;62.50;101893.84;107625;1270;137879;-74
2022/03/17 04:49:19;;;;;;;71.70;41.80;;;;;;;1.77;62.33;101896.35;107806;1270;94796;-75
2022/03/17 04:51:51;;;;;;;72.20;43.00;;;;;;;1.75;62.40;101897.31;107809;1270;111018;-76
2022/03/17 04:54:24;;;;;;;69.10;42.10;;;;;;;1.73;62.69;101900.02;107706;1270;139792;-76
2022/03/17 04:56:56;;;;;;;64.90;39.80;;;;;;;1.71;62.88;101903.54;107775;1269;105810;-76
2022/03/17 04:59:28;;;;;;;64.80;39.60;;;;;;;1.69;62.91;101907.59;107577;1270;139548;-76
2022/03/17 05:02:00;;;;;;;62.40;38.90;;;;;;;1.69;63.06;101908.45;107764;1270;94896;-76
2022/03/17 05:04:47;;;;;;;61.50;38.20;;;;;;;1.71;63.35;101911.62;107453;1270;355018;-75
2022/03/17 05:07:20;;;;;;;63.90;39.50;;;;;;;1.76;63.20;101908.66;106220;1270;108870;-76
2022/03/17 05:09:52;;;;;;;70.10;41.40;;;;;;;1.81;63.36;101913.12;106204;1269;108120;-74
2022/03/17 05:12:25;;;;;;;67.10;40.70;;;;;;;1.86;63.41;101914.80;106110;1270;138151;-75
2022/03/17 05:14:58;;;;;;;73.90;43.60;;;;;;;1.92;63.17;101912.39;106135;1271;97761;-75
2022/03/17 05:17:32;;;;;;;69.90;40.90;;;;;;;2.06;63.20;101914.88;106051;1271;137858;-75
2022/03/17 05:20:09;;;;;;;73.90;42.60;;;;;;;2.26;62.97;101913.23;107711;1270;108021;-76
2022/03/17 05:22:42;;;;;;;66.50;40.50;;;;;;;2.31;62.67;101914.73;107642;1269;138700;-76
2022/03/17 05:25:15;;;;;;;62.90;38.20;;;;;;;2.36;62.51;101909.06;107749;1269;94847;-76
2022/03/17 05:27:49;;;;;;;63.20;38.00;;;;;;;2.50;62.37;101915.45;107743;1270;95129;-75
2022/03/17 05:30:22;;;;;;;62.60;38.70;;;;;;;2.79;62.14;101910.38;107606;1270;139236;-76
2022/03/17 05:32:54;;;;;;;63.00;39.10;;;;;;;3.30;61.71;101915.61;107765;1270;107788;-75
2022/03/17 05:35:27;;;;;;;62.70;38.80;;;;;;;3.98;60.76;101916.98;107668;1270;138692;-76
2022/03/17 05:38:00;;;;;;;60.60;38.90;;;;;;;4.74;58.92;101916.28;107796;1270;94647;-75
2022/03/17 05:40:33;;;;;;;58.00;39.00;;;;;;;5.39;57.59;101918.77;107693;1270;137862;-74
2022/03/17 05:43:08;;;;;;;63.00;39.30;;;;;;;6.19;56.40;101924.06;107795;1270;111047;-74
2022/03/17 05:45:43;;;;;;;58.90;39.00;;;;;;;7.18;54.59;101926.00;107734;1270;110172;-75
2022/03/17 05:48:15;;;;;;;58.80;39.70;;;;;;;8.00;52.81;101928.48;107621;1269;137777;-75
2022/03/17 05:50:48;;;;;;;57.00;38.10;;;;;;;8.72;51.38;101927.04;107777;1270;94808;-75
2022/03/17 05:53:20;;;;;;;59.30;38.40;;;;;;;9.37;50.10;101933.36;107701;1269;137980;-75
2022/03/17 05:55:52;;;;;;;56.20;37.70;;;;;;;10.02;49.08;101935.69;107782;1270;110191;-75
2022/03/17 05:58:25;;;;;;;53.70;38.20;;;;;;;10.48;47.50;101935.88;107704;1270;138232;-75
2022/03/17 06:00:59;;;;;;;52.10;37.50;;;;;;;10.97;46.26;101936.64;107644;1270;108940;-76
2022/03/17 06:03:32;;;;;;;52.80;36.90;;;;;;;11.27;45.11;101932.59;107793;1270;94815;-75
2022/03/17 06:06:05;;;;;;;54.80;38.20;;;;;;;11.58;44.08;101935.61;107640;1270;139280;-76
2022/03/17 06:08:40;;;;;;;53.30;36.80;;;;;;;12.01;43.29;101936.95;107591;1269;111147;-76
2022/03/17 06:11:13;;;;;;;54.90;37.00;;;;;;;12.21;41.51;101933.24;107575;1270;138691;-76
2022/03/17 06:13:46;;;;;;;52.70;36.80;;;;;;;12.53;42.00;101933.02;107793;1270;107745;-76
2022/03/17 06:16:19;;;;;;;53.10;37.00;;;;;;;13.05;41.43;101937.85;107777;1270;94513;-76
2022/03/17 06:18:52;;;;;;;48.30;35.80;;;;;;;13.63;41.32;101933.92;107694;1270;138056;-76
2022/03/17 06:21:24;;;;;;;49.60;36.40;;;;;;;14.32;39.94;101927.52;107828;1270;110625;-77
2022/03/17 06:23:57;;;;;;;52.20;36.50;;;;;;;14.85;38.91;101928.66;107705;1270;137993;-77
2022/03/17 06:26:29;;;;;;;49.30;35.60;;;;;;;15.25;38.13;101925.23;107817;1270;108752;-77
2022/03/17 06:29:03;;;;;;;50.40;35.00;;;;;;;15.63;36.23;101926.90;107651;1270;138494;-75
2022/03/17 06:31:39;;;;;;;51.00;36.40;;;;;;;15.65;35.35;101924.23;107801;1270;94731;-76
2022/03/17 06:34:12;;;;;;;50.80;35.80;;;;;;;15.93;34.89;101918.73;107783;1270;111272;-75
2022/03/17 06:36:45;;;;;;;47.10;35.20;;;;;;;16.18;34.83;101923.30;107701;1270;138015;-75
2022/03/17 06:39:17;;;;;;;50.90;34.80;;;;;;;16.41;33.77;101930.34;107717;1270;107809;-76
2022/03/17 06:41:50;;;;;;;48.70;35.40;;;;;;;16.71;33.68;101931.03;107638;1269;138169;-77
2022/03/17 06:44:22;;;;;;;49.40;34.10;;;;;;;16.93;32.85;101939.00;107795;1270;94669;-77
2022/03/17 06:46:55;;;;;;;47.70;34.50;;;;;;;17.19;32.87;101938.31;107580;1270;139220;-77
2022/03/17 06:49:27;;;;;;;44.80;33.80;;;;;;;17.46;31.42;101940.77;107758;1270;108502;-77
2022/03/17 06:52:00;;;;;;;45.40;35.60;;;;;;;17.49;31.07;101931.66;107776;1270;108198;-78
2022/03/17 06:54:33;;;;;;;45.70;34.60;;;;;;;17.56;31.27;101936.03;107678;1270;138622;-77
2022/03/17 06:57:06;;;;;;;47.50;34.10;;;;;;;17.80;30.99;101939.06;107817;1270;94834;-76
2022/03/17 06:59:50;;;;;;;47.10;33.30;;;;;;;18.06;30.15;101941.98;107705;1270;138731;-76
2022/03/17 07:02:23;;;;;;;46.20;32.90;;;;;;;18.12;29.54;101944.95;107743;1270;108768;-78
2022/03/17 07:04:56;;;;;;;45.20;32.90;;;;;;;18.27;30.25;101953.91;107683;1270;139930;-76
2022/03/17 07:07:29;;;;;;;46.50;31.80;;;;;;;18.67;30.09;101953.84;107773;1269;94614;-73
2022/03/17 07:10:01;;;;;;;40.30;31.00;;;;;;;19.17;30.69;101955.52;107782;1270;94643;-66
2022/03/17 07:12:33;;;;;;;46.80;33.20;;;;;;;19.52;29.39;101955.30;107668;1270;138367;-69
2022/03/17 07:15:06;;;;;;;39.80;30.90;;;;;;;19.68;29.33;101956.41;107743;1270;108601;-70
2022/03/17 07:17:40;;;;;;;46.90;32.60;;;;;;;19.93;28.50;101958.33;107590;1270;138069;-76
2022/03/17 07:20:15;;;;;;;42.40;33.50;;;;;;;20.07;28.63;101955.40;107635;1270;94905;-77
2022/03/17 07:22:49;;;;;;;44.50;32.80;;;;;;;20.30;27.71;101949.95;107621;1270;138694;-77
2022/03/17 07:25:24;;;;;;;42.10;32.10;;;;;;;20.42;27.79;101952.23;107808;1270;110291;-77
2022/03/17 07:27:57;;;;;;;43.30;31.70;;;;;;;20.52;26.47;101961.17;107819;1270;107830;-77
2022/03/17 07:30:31;;;;;;;42.50;31.60;;;;;;;20.34;26.12;101964.29;107601;1271;139568;-77
2022/03/17 07:33:04;;;;;;;45.60;32.70;;;;;;;20.29;26.29;101962.53;107760;1270;95227;-80
2022/03/17 07:35:36;;;;;;;47.60;32.70;;;;;;;19.97;25.89;101974.59;107664;1270;138552;-79
2022/03/17 07:38:08;;;;;;;43.10;30.80;;;;;;;19.73;25.93;101976.65;107809;1270;111239;-76
2022/03/17 07:40:45;;;;;;;39.00;30.40;;;;;;;19.45;26.09;101983.83;107696;1270;138691;-76
2022/03/17 07:43:17;;;;;;;39.90;31.40;;;;;;;19.22;26.09;101980.53;107645;1270;109861;-77
2022/03/17 07:46:09;;;;;;;47.70;32.00;;;;;;;18.96;26.33;101980.00;107726;1270;95051;-77
2022/03/17 07:49:00;;;;;;;41.00;32.10;;;;;;;18.98;27.03;101985.94;107653;1270;138316;-77
2022/03/17 07:51:40;;;;;;;44.10;32.30;;;;;;;19.00;26.51;101985.48;107676;1271;110613;-76
2022/03/17 07:54:16;;;;;;;45.10;31.70;;;;;;;18.77;26.68;101987.46;107491;1270;140148;-76
2022/03/17 07:56:51;;;;;;;46.30;33.30;;;;;;;18.94;27.17;101989.08;107683;1270;108847;-76
2022/03/17 07:59:25;;;;;;;43.20;33.50;;;;;;;19.34;27.13;101992.60;107607;1270;138586;-75
2022/03/17 08:01:58;;;;;;;43.60;32.90;;;;;;;19.64;26.56;101995.09;107718;1270;95033;-76
2022/03/17 08:04:32;;;;;;;47.30;33.80;;;;;;;19.94;26.96;101997.30;107807;1270;111575;-75
2022/03/17 08:07:06;;;;;;;47.80;35.40;;;;;;;20.52;26.77;102000.58;107590;1270;141570;-76
2022/03/17 08:09:40;;;;;;;45.50;34.70;;;;;;;20.80;26.22;101995.19;107668;1271;107617;-77
2022/03/17 08:12:14;;;;;;;43.90;33.70;;;;;;;20.88;24.68;101999.25;107656;1270;139157;-76
2022/03/17 08:14:46;;;;;;;45.60;33.00;;;;;;;20.33;24.45;102003.51;107705;1270;94848;-76
2022/03/17 08:17:20;;;;;;;42.40;31.90;;;;;;;20.01;25.26;102008.30;107687;1270;139251;-75
2022/03/17 08:19:55;;;;;;;46.70;34.20;;;;;;;20.13;25.74;102011.49;107700;1271;109236;-75
2022/03/17 08:22:28;;;;;;;45.10;33.70;;;;;;;20.18;25.29;102016.71;107620;1271;109088;-75
2022/03/17 08:25:03;;;;;;;46.30;32.60;;;;;;;20.21;25.55;102019.25;107636;1269;137881;-75
2022/03/17 08:27:40;;;;;;;40.10;30.50;;;;;;;20.28;25.31;102018.06;107804;1270;94540;-75
2022/03/17 08:30:14;;;;;;;43.30;30.80;;;;;;;20.29;25.21;102022.45;107640;1270;137457;-73
2022/03/17 08:32:46;;;;;;;38.70;29.60;;;;;;;20.23;25.08;102021.45;107810;1270;107570;-77
2022/03/17 08:35:19;;;;;;;38.20;29.10;;;;;;;20.24;25.31;102015.06;107660;1270;140474;-78
2022/03/17 08:37:53;;;;;;;40.20;29.70;;;;;;;20.32;24.90;102015.74;107763;1270;95053;-81
2022/03/17 08:40:26;;;;;;;39.20;29.70;;;;;;;19.99;24.42;102023.23;107734;1270;94589;-76
2022/03/17 08:42:58;;;;;;;41.10;31.30;;;;;;;19.68;25.07;102024.02;107638;1270;137760;-77
2022/03/17 08:51:16;;;;;;;41.00;29.00;;;;;;;19.37;25.21;102020.70;107762;1270;94893;-78
2022/03/17 08:53:49;;;;;;;42.50;30.10;;;;;;;19.16;25.37;102022.59;107655;1270;138382;-76
2022/03/17 08:56:23;;;;;;;39.20;30.50;;;;;;;19.00;25.69;102028.70;107634;1270;113279;-76
2022/03/17 08:58:56;;;;;;;42.10;30.20;;;;;;;18.84;25.51;102024.91;107692;1270;138598;-75
2022/03/17 09:01:30;;;;;;;38.60;29.50;;;;;;;18.56;25.96;102029.78;107722;1270;109041;-76
2022/03/17 09:04:05;;;;;;;40.90;30.90;;;;;;;18.67;26.26;102026.95;107752;1270;95338;-76
2022/03/17 09:06:38;;;;;;;41.10;29.00;;;;;;;18.53;25.49;102028.34;107651;1270;138172;-75
2022/03/17 09:09:11;;;;;;;44.10;30.00;;;;;;;18.09;25.91;102029.91;107783;1270;110501;-78
2022/03/17 09:11:45;;;;;;;39.20;29.90;;;;;;;17.86;26.13;102033.89;107600;1270;138987;-75
2022/03/17 09:14:19;;;;;;;44.30;27.80;;;;;;;17.33;26.01;102032.60;107488;1270;109059;-75
2022/03/17 09:16:52;;;;;;;40.00;29.90;;;;;;;16.96;26.90;102030.97;107666;1270;138069;-75
2022/03/17 09:19:25;;;;;;;40.20;28.20;;;;;;;16.96;27.01;102031.48;107691;1270;94830;-76
2022/03/17 09:21:58;;;;;;;36.90;28.00;;;;;;;16.93;27.31;102029.11;107783;1270;110165;-87
2022/03/17 09:24:31;;;;;;;35.00;27.00;;;;;;;17.03;27.05;102034.26;107536;1271;138365;-88
2022/03/17 09:27:06;;;;;;;43.80;28.10;;;;;;;16.91;26.82;102032.52;107740;1270;106557;-78
2022/03/17 09:29:40;;;;;;;39.70;27.30;;;;;;;16.47;27.21;102038.68;107699;1270;138199;-73
2022/03/17 09:32:15;;;;;;;37.50;27.60;;;;;;;16.31;27.48;102041.06;107732;1270;94900;-89
2022/03/17 09:34:47;;;;;;;36.20;28.20;;;;;;;16.14;27.91;102039.92;107735;1269;139511;-79
2022/03/17 09:37:21;;;;;;;36.10;27.50;;;;;;;16.33;28.15;102035.05;107772;1270;108267;-76
2022/03/17 09:39:54;;;;;;;39.10;27.60;;;;;;;16.29;28.20;102039.69;107692;1270;108886;-80
2022/03/17 09:42:27;;;;;;;37.50;27.90;;;;;;;16.35;27.97;102043.23;107576;1271;138456;-84
2022/03/17 09:45:00;;;;;;;38.40;27.90;;;;;;;16.31;28.17;102043.16;107793;1270;94755;-85
2022/03/17 09:47:37;;;;;;;37.20;27.60;;;;;;;16.14;28.01;102043.80;107735;1270;138388;-85
2022/03/17 09:50:16;;;;;;;38.20;26.90;;;;;;;15.74;28.54;102043.59;107837;1270;108915;-85
2022/03/17 09:52:50;;;;;;;34.70;25.80;;;;;;;15.62;28.64;102044.77;107616;1270;138210;-86
2022/03/17 09:55:24;;;;;;;34.10;24.90;;;;;;;15.37;28.63;102036.23;107217;1270;96484;-85
2022/03/17 09:57:59;;;;;;;33.50;26.40;;;;;;;15.04;29.05;102044.36;107829;1270;94795;-85
2022/03/17 10:03:19;;;;;;;39.00;26.10;;;;;;;15.17;29.17;102049.66;107657;1270;107856;-86
2022/03/17 10:05:53;;;;;;;34.60;24.60;;;;;;;15.12;29.33;102048.56;107603;1270;139076;-85
2022/03/17 10:08:27;;;;;;;35.50;24.60;;;;;;;15.17;29.22;102050.91;107767;1270;94886;-86
2022/03/17 10:10:59;;;;;;;37.40;25.00;;;;;;;15.04;29.30;102044.19;106481;1270;138797;-88
2022/03/17 10:13:34;;;;;;;39.00;25.60;;;;;;;14.76;29.62;102043.21;106107;1270;110046;-85
2022/03/17 10:16:12;;;;;;;37.50;26.10;;;;;;;14.55;29.58;102045.38;106287;1271;108474;-87
2022/03/17 10:18:45;;;;;;;32.50;24.90;;;;;;;14.26;30.30;102044.70;106079;1270;137943;-87
2022/03/17 10:21:24;;;;;;;36.00;25.20;;;;;;;14.28;30.43;102049.19;106238;1270;96468;-86
2022/03/17 10:24:00;;;;;;;34.80;25.90;;;;;;;14.17;30.74;102035.77;106137;1270;137968;-85
2022/03/17 10:26:44;;;;;;;36.30;25.60;;;;;;;14.27;30.76;102034.36;107856;1269;109710;-88
2022/03/17 10:29:21;;;;;;;30.60;22.60;;;;;;;14.26;30.60;102033.86;107585;1271;140072;-87
2022/03/17 10:31:58;;;;;;;33.50;24.40;;;;;;;14.16;30.49;102033.86;107794;1270;108902;-89
2022/03/17 10:34:36;;;;;;;37.10;23.70;;;;;;;14.01;30.60;102035.35;107814;1270;94432;-89
2022/03/17 10:37:15;;;;;;;29.10;22.10;;;;;;;13.97;30.78;102041.38;107454;1271;137861;-88
2022/03/17 10:39:49;;;;;;;30.80;23.00;;;;;;;14.03;30.59;102036.23;106306;1271;110256;-90
2022/03/17 10:42:23;;;;;;;33.30;23.20;;;;;;;14.09;30.58;102044.48;106174;1270;138707;-86
2022/03/17 10:44:58;;;;;;;32.70;22.20;;;;;;;13.94;30.30;102043.35;106299;1270;108603;-84
2022/03/17 10:47:31;;;;;;;31.10;23.10;;;;;;;13.79;30.71;102038.71;106110;1271;138209;-83
2022/03/17 10:50:13;;;;;;;39.20;23.80;;;;;;;13.83;30.99;102037.26;106246;1270;96475;-84
2022/03/17 10:52:51;;;;;;;35.60;23.00;;;;;;;13.64;31.32;102030.93;107711;1270;137782;-84
2022/03/17 10:55:28;;;;;;;31.80;22.20;;;;;;;13.59;31.42;102029.77;107797;1270;108834;-85
2022/03/17 10:58:14;;;;;;;31.30;22.50;;;;;;;13.57;31.28;102027.88;107654;1270;108686;-86
2022/03/17 11:00:52;;;;;;;32.60;23.20;;;;;;;13.48;31.71;102027.88;107638;1271;138152;-87
2022/03/17 11:03:26;;;;;;;29.80;21.10;;;;;;;13.54;32.06;102025.67;107736;1270;95285;-85
2022/03/17 11:06:00;;;;;;;33.30;20.20;;;;;;;13.36;31.49;102020.19;107666;1270;138170;-86
2022/03/17 11:08:33;;;;;;;30.20;21.50;;;;;;;12.78;31.65;102014.17;107642;1270;109542;-86
2022/03/17 11:11:10;;;;;;;37.90;23.90;;;;;;;12.48;32.27;102025.19;107653;1270;138318;-88
2022/03/17 11:13:44;;;;;;;33.40;23.20;;;;;;;12.28;33.21;102030.84;107847;1270;94870;-85
2022/03/17 11:16:18;;;;;;;30.90;21.80;;;;;;;12.27;33.23;102025.27;107811;1270;94646;-85
2022/03/17 11:18:51;;;;;;;35.70;24.40;;;;;;;11.96;33.32;102024.70;107746;1269;137804;-85
2022/03/17 11:21:30;;;;;;;35.30;22.60;;;;;;;11.91;33.91;102024.73;107753;1270;107816;-86
2022/03/17 11:24:06;;;;;;;34.90;21.50;;;;;;;12.21;33.91;102026.02;107527;1271;138783;-85
2022/03/17 11:26:41;;;;;;;32.60;20.50;;;;;;;12.46;33.50;102024.16;107801;1270;94622;-78
2022/03/17 11:29:15;;;;;;;29.60;20.00;;;;;;;12.70;33.33;102010.25;107689;1270;138556;-86
2022/03/17 11:31:59;;;;;;;36.30;23.70;;;;;;;12.86;32.76;102015.11;107652;1270;110113;-68
2022/03/17 11:34:47;;;;;;;35.10;22.30;;;;;;;12.85;32.56;102022.27;107803;1270;109160;-62
2022/03/17 11:37:26;;;;;;;28.10;20.00;;;;;;;12.58;32.70;102017.73;107659;1270;137880;-75
2022/03/17 11:40:04;;;;;;;30.80;20.50;;;;;;;12.44;32.94;102023.67;107783;1270;94953;-75
2022/03/17 11:42:41;;;;;;;29.50;20.20;;;;;;;12.32;32.73;102022.42;107532;1271;138382;-75